createdAt,value
2022-09-23T00:01:14.903Z,99.90
2022-09-23T00:03:49.004Z,99.90
2022-09-23T00:06:23.226Z,99.90
2022-09-23T00:08:51.884Z,99.90
2022-09-23T00:11:26.411Z,99.90
2022-09-23T00:13:58.259Z,99.90
2022-09-23T00:16:34.100Z,99.90
2022-09-23T00:19:02.339Z,99.90
2022-09-23T00:21:29.808Z,99.90
2022-09-23T00:23:56.496Z,99.90
2022-09-23T00:26:24.187Z,99.90
2022-09-23T00:28:51.558Z,99.90
2022-09-23T00:31:25.798Z,99.90
2022-09-23T00:34:01.246Z,99.90
2022-09-23T00:36:32.017Z,99.90
2022-09-23T00:38:59.027Z,99.90
2022-09-23T00:41:26.285Z,99.90
2022-09-23T00:44:01.085Z,99.90
2022-09-23T00:46:43.287Z,99.90
2022-09-23T00:49:22.504Z,99.90
2022-09-23T00:52:08.659Z,99.90
2022-09-23T00:54:35.771Z,99.90
2022-09-23T00:57:05.215Z,99.90
2022-09-23T00:59:33.262Z,99.90
2022-09-23T01:02:02.947Z,99.90
2022-09-23T01:04:30.296Z,99.90
2022-09-23T01:06:56.998Z,99.90
2022-09-23T01:09:25.101Z,99.90
2022-09-23T01:12:34.182Z,99.90
2022-09-23T01:15:22.917Z,99.90
2022-09-23T01:18:45.079Z,99.90
2022-09-23T01:21:36.072Z,99.90
2022-09-23T01:24:37.710Z,99.90
2022-09-23T01:27:37.978Z,99.90
2022-09-23T01:30:41.445Z,99.90
2022-09-23T01:33:40.422Z,99.90
2022-09-23T01:36:29.897Z,99.90
2022-09-23T01:39:08.251Z,99.90
2022-09-23T01:42:26.874Z,99.90
2022-09-23T01:45:02.787Z,99.90
2022-09-23T01:47:41.757Z,99.90
2022-09-23T01:50:38.120Z,99.90
2022-09-23T01:53:23.626Z,99.90
2022-09-23T01:55:58.626Z,99.90
2022-09-23T01:58:42.268Z,99.90
2022-09-23T02:01:17.272Z,99.90
2022-09-23T02:03:59.554Z,99.90
2022-09-23T02:06:39.986Z,99.90
2022-09-23T02:09:15.631Z,99.90
2022-09-23T02:11:52.367Z,99.90
2022-09-23T02:14:31.614Z,99.90
2022-09-23T02:17:08.412Z,99.90
2022-09-23T02:19:47.754Z,99.90
2022-09-23T02:22:29.723Z,99.90
2022-09-23T02:24:58.211Z,99.90
2022-09-23T02:27:50.644Z,99.90
2022-09-23T02:30:27.070Z,99.90
2022-09-23T02:33:11.723Z,99.90
2022-09-23T02:36:15.028Z,99.90
2022-09-23T02:38:52.955Z,99.90
2022-09-23T02:41:47.874Z,99.90
2022-09-23T02:44:19.704Z,99.90
2022-09-23T02:46:46.940Z,99.90
2022-09-23T02:49:22.079Z,99.90
2022-09-23T02:51:52.304Z,99.90
2022-09-23T02:54:25.587Z,99.90
2022-09-23T02:56:53.374Z,99.90
2022-09-23T02:59:22.919Z,99.90
2022-09-23T03:02:27.533Z,99.90
2022-09-23T03:05:18.036Z,99.90
2022-09-23T03:08:21.968Z,99.90
2022-09-23T03:11:06.815Z,99.90
2022-09-23T03:13:48.942Z,99.90
2022-09-23T03:16:32.349Z,99.90
2022-09-23T03:19:19.572Z,99.90
2022-09-23T03:22:00.901Z,99.90
2022-09-23T03:24:34.462Z,99.90
2022-09-23T03:27:13.368Z,99.90
2022-09-23T03:29:53.289Z,99.90
2022-09-23T03:32:27.874Z,99.90
2022-09-23T03:34:58.970Z,99.90
2022-09-23T03:37:33.893Z,99.90
2022-09-23T03:40:12.346Z,99.90
2022-09-23T03:42:39.962Z,99.90
2022-09-23T03:45:16.987Z,99.90
2022-09-23T03:47:44.401Z,99.90
2022-09-23T03:50:13.321Z,99.90
2022-09-23T03:52:40.727Z,99.90
2022-09-23T03:55:08.514Z,99.90
2022-09-23T03:57:36.517Z,99.90
2022-09-23T04:00:06.890Z,99.90
2022-09-23T04:02:34.053Z,99.90
2022-09-23T04:05:01.076Z,99.90
2022-09-23T04:07:28.162Z,99.90
2022-09-23T04:09:55.692Z,99.90
2022-09-23T04:12:22.887Z,99.90
2022-09-23T04:14:49.559Z,99.90
2022-09-23T04:17:16.559Z,99.90
2022-09-23T04:19:43.559Z,99.90
2022-09-23T04:22:10.382Z,99.90
2022-09-23T04:24:37.221Z,99.90
2022-09-23T04:27:04.243Z,99.90
2022-09-23T04:29:30.957Z,99.90
2022-09-23T04:31:57.728Z,99.90
2022-09-23T04:34:24.497Z,99.90
2022-09-23T04:36:51.203Z,99.90
2022-09-23T04:39:18.383Z,99.90
2022-09-23T04:41:46.208Z,99.90
2022-09-23T04:44:13.946Z,99.90
2022-09-23T04:46:47.913Z,99.90
2022-09-23T04:49:15.955Z,99.90
2022-09-23T04:51:43.444Z,99.90
2022-09-23T04:54:12.076Z,99.90
2022-09-23T04:56:39.628Z,99.90
2022-09-23T04:59:07.416Z,99.90
2022-09-23T05:01:36.099Z,99.90
2022-09-23T05:04:07.284Z,99.90
2022-09-23T05:06:35.781Z,99.90
2022-09-23T05:09:07.220Z,99.90
2022-09-23T05:11:37.029Z,99.90
2022-09-23T05:14:03.710Z,99.90
2022-09-23T05:16:30.614Z,99.90
2022-09-23T05:18:57.962Z,99.90
2022-09-23T05:21:33.594Z,99.90
2022-09-23T05:24:00.677Z,99.90
2022-09-23T05:26:31.993Z,99.90
2022-09-23T05:28:59.941Z,99.90
2022-09-23T05:31:29.834Z,99.90
2022-09-23T05:34:03.495Z,99.90
2022-09-23T05:36:38.323Z,99.90
2022-09-23T05:39:07.033Z,99.90
2022-09-23T05:41:34.066Z,99.90
2022-09-23T05:44:01.833Z,99.90
2022-09-23T05:46:30.533Z,99.90
2022-09-23T05:49:02.539Z,99.90
2022-09-23T05:51:31.782Z,99.90
2022-09-23T05:54:02.705Z,99.90
2022-09-23T05:56:30.260Z,99.90
2022-09-23T05:59:00.192Z,99.90
2022-09-23T06:01:34.683Z,99.90
2022-09-23T06:04:04.664Z,99.90
2022-09-23T06:06:41.378Z,99.90
2022-09-23T06:09:15.861Z,99.90
2022-09-23T06:11:50.698Z,99.90
2022-09-23T06:14:17.498Z,99.90
2022-09-23T06:16:44.800Z,99.90
2022-09-23T06:19:11.585Z,99.90
2022-09-23T06:21:41.468Z,99.90
2022-09-23T06:24:09.816Z,99.90
2022-09-23T06:26:38.376Z,99.90
2022-09-23T06:29:14.450Z,99.90
2022-09-23T06:31:44.678Z,99.90
2022-09-23T06:34:14.428Z,99.90
2022-09-23T06:36:45.434Z,99.90
2022-09-23T06:39:14.967Z,99.90
2022-09-23T06:41:42.146Z,99.90
2022-09-23T06:44:09.169Z,99.90
2022-09-23T06:46:36.939Z,99.90
2022-09-23T06:49:04.161Z,99.90
2022-09-23T06:51:33.226Z,99.90
2022-09-23T06:54:00.187Z,99.90
2022-09-23T06:56:27.046Z,99.90
2022-09-23T06:58:54.602Z,99.90
2022-09-23T07:01:22.961Z,99.90
2022-09-23T07:03:49.858Z,99.90
2022-09-23T07:06:17.656Z,99.90
2022-09-23T07:08:51.106Z,99.90
2022-09-23T07:11:24.478Z,99.90
2022-09-23T07:13:51.313Z,99.90
2022-09-23T07:16:18.429Z,99.90
2022-09-23T07:18:45.999Z,99.90
2022-09-23T07:21:17.502Z,99.90
2022-09-23T07:23:47.595Z,99.90
2022-09-23T07:26:16.134Z,99.90
2022-09-23T07:28:43.442Z,99.90
2022-09-23T07:31:15.523Z,99.90
2022-09-23T07:33:44.094Z,99.90
2022-09-23T07:36:17.323Z,99.90
2022-09-23T07:38:46.184Z,99.90
2022-09-23T07:41:17.749Z,99.90
2022-09-23T07:43:46.208Z,99.90
2022-09-23T07:46:17.622Z,99.90
2022-09-23T07:48:46.039Z,99.90
2022-09-23T07:51:21.434Z,99.90
2022-09-23T07:53:51.083Z,99.90
2022-09-23T07:56:19.781Z,99.90
2022-09-23T07:58:59.837Z,99.90
2022-09-23T08:01:39.475Z,99.90
2022-09-23T08:04:14.749Z,99.90
2022-09-23T08:06:43.918Z,99.90
2022-09-23T08:09:11.649Z,99.90
2022-09-23T08:11:42.414Z,99.90
2022-09-23T08:14:13.401Z,99.90
2022-09-23T08:16:43.925Z,99.90
2022-09-23T08:19:11.220Z,99.90
2022-09-23T08:21:40.601Z,99.60
2022-09-23T08:24:12.490Z,98.50
2022-09-23T08:26:39.275Z,97.10
2022-09-23T08:29:09.643Z,97.30
2022-09-23T08:31:36.350Z,96.50
2022-09-23T08:34:03.576Z,94.80
2022-09-23T08:36:32.023Z,93.80
2022-09-23T08:38:58.728Z,92.60
2022-09-23T08:41:58.986Z,92.60
2022-09-23T08:44:37.565Z,93.60
2022-09-23T08:47:24.960Z,93.40
2022-09-23T08:50:07.254Z,91.50
2022-09-23T08:52:55.806Z,91.00
2022-09-23T08:55:42.330Z,88.60
2022-09-23T08:58:25.409Z,88.20
2022-09-23T09:01:27.516Z,85.20
2022-09-23T09:03:58.742Z,83.00
2022-09-23T09:06:52.522Z,80.10
2022-09-23T09:09:36.327Z,82.40
2022-09-23T09:13:00.118Z,83.20
2022-09-23T09:15:28.347Z,79.60
2022-09-23T09:18:13.160Z,78.20
2022-09-23T09:21:09.841Z,76.30
2022-09-23T09:23:59.521Z,76.90
2022-09-23T09:26:33.121Z,77.40
2022-09-23T09:29:35.015Z,78.40
2022-09-23T09:32:14.970Z,79.30
2022-09-23T09:34:56.417Z,75.00
2022-09-23T09:37:36.612Z,76.00
2022-09-23T09:40:04.102Z,77.10
2022-09-23T09:42:42.710Z,74.20
2022-09-23T09:45:41.235Z,73.90
2022-09-23T09:48:29.303Z,74.80
2022-09-23T09:50:56.041Z,76.90
2022-09-23T09:53:35.535Z,76.50
2022-09-23T09:56:16.228Z,71.50
2022-09-23T09:58:52.007Z,65.00
2022-09-23T10:01:29.917Z,61.90
2022-09-23T10:04:05.225Z,61.10
2022-09-23T10:06:35.723Z,60.10
2022-09-23T10:09:08.430Z,61.30
2022-09-23T10:11:35.440Z,57.20
2022-09-23T10:14:19.532Z,58.20
2022-09-23T10:17:05.049Z,55.90
2022-09-23T10:19:34.529Z,57.20
2022-09-23T10:22:08.317Z,55.40
2022-09-23T10:24:38.672Z,53.00
2022-09-23T10:27:11.716Z,54.30
2022-09-23T10:29:48.146Z,55.50
2022-09-23T10:32:30.170Z,54.80
2022-09-23T10:35:08.931Z,52.30
2022-09-23T10:37:40.941Z,53.70
2022-09-23T10:40:47.887Z,54.60
2022-09-23T10:44:16.629Z,54.60
2022-09-23T10:47:25.153Z,54.80
2022-09-23T10:50:32.301Z,54.70
2022-09-23T10:53:12.538Z,53.70
2022-09-23T10:56:12.968Z,51.20
2022-09-23T10:59:30.149Z,51.50
2022-09-23T11:02:07.603Z,52.10
2022-09-23T11:05:23.393Z,51.30
2022-09-23T11:08:36.338Z,50.50
2022-09-23T11:11:28.973Z,51.20
2022-09-23T11:14:28.103Z,50.90
2022-09-23T11:17:14.598Z,47.70
2022-09-23T11:20:27.801Z,46.20
2022-09-23T11:23:26.407Z,45.20
2022-09-23T11:26:42.004Z,45.50
2022-09-23T11:29:55.128Z,44.80
2022-09-23T11:32:33.416Z,45.00
2022-09-23T11:35:20.399Z,44.10
2022-09-23T11:37:55.314Z,45.70
2022-09-23T11:40:32.960Z,46.20
2022-09-23T11:43:21.635Z,46.70
2022-09-23T11:46:10.189Z,46.50
2022-09-23T11:49:02.831Z,45.80
2022-09-23T11:51:44.701Z,46.60
2022-09-23T11:54:27.883Z,47.40
2022-09-23T11:57:02.636Z,47.10
2022-09-23T11:59:41.492Z,45.80
2022-09-23T12:02:30.451Z,45.80
2022-09-23T12:05:08.185Z,48.10
2022-09-23T12:08:06.363Z,46.50
2022-09-23T12:11:14.493Z,45.00
2022-09-23T12:14:07.364Z,47.80
2022-09-23T12:16:53.919Z,46.10
2022-09-23T12:20:04.480Z,45.70
2022-09-23T12:23:33.411Z,44.50
2022-09-23T12:26:17.059Z,43.90
2022-09-23T12:28:49.949Z,46.50
2022-09-23T12:31:21.996Z,46.80
2022-09-23T12:33:52.220Z,46.00
2022-09-23T12:36:34.667Z,47.10
2022-09-23T12:39:29.791Z,46.70
2022-09-23T12:42:10.843Z,45.30
2022-09-23T12:44:41.389Z,45.30
2022-09-23T12:47:25.757Z,47.10
2022-09-23T12:49:54.664Z,46.10
2022-09-23T12:52:33.429Z,46.30
2022-09-23T12:55:23.235Z,46.30
2022-09-23T12:57:50.142Z,45.20
2022-09-23T13:00:30.926Z,44.10
2022-09-23T13:03:19.281Z,45.10
2022-09-23T13:06:19.050Z,45.60
2022-09-23T13:08:47.811Z,44.70
2022-09-23T13:11:29.625Z,41.60
2022-09-23T13:14:01.968Z,41.80
2022-09-23T13:16:41.449Z,43.50
2022-09-23T13:19:26.430Z,43.40
2022-09-23T13:21:53.304Z,42.10
2022-09-23T13:24:22.926Z,42.60
2022-09-23T13:27:30.010Z,40.30
2022-09-23T13:30:05.310Z,42.20
2022-09-23T13:32:39.420Z,44.10
2022-09-23T13:35:24.612Z,42.40
2022-09-23T13:37:51.312Z,41.40
2022-09-23T13:40:26.691Z,41.20
2022-09-23T13:43:06.183Z,40.40
2022-09-23T13:45:39.820Z,39.70
2022-09-23T13:48:13.250Z,39.40
2022-09-23T13:50:44.956Z,39.40
2022-09-23T13:53:20.878Z,38.30
2022-09-23T13:55:52.244Z,38.50
2022-09-23T13:58:23.761Z,38.60
2022-09-23T14:00:51.506Z,40.00
2022-09-23T14:03:25.017Z,37.20
2022-09-23T14:05:54.902Z,33.40
2022-09-23T14:08:23.433Z,37.70
2022-09-23T14:10:50.706Z,27.10
2022-09-23T14:13:30.038Z,25.50
2022-09-23T14:16:00.169Z,25.50
2022-09-23T14:18:45.198Z,24.90
2022-09-23T14:21:34.853Z,27.00
2022-09-23T14:24:24.914Z,26.40
2022-09-23T14:27:06.541Z,25.80
2022-09-23T14:29:40.825Z,25.80
2022-09-23T14:32:21.107Z,25.70
2022-09-23T14:34:59.487Z,26.90
2022-09-23T14:37:56.419Z,28.40
2022-09-23T14:40:36.793Z,29.60
2022-09-23T14:43:24.911Z,30.80
2022-09-23T14:45:58.301Z,31.70
2022-09-23T14:48:33.124Z,33.70
2022-09-23T14:51:13.201Z,35.80
2022-09-23T14:53:49.089Z,38.10
2022-09-23T14:56:25.426Z,38.40
2022-09-23T14:58:58.592Z,38.20
2022-09-23T15:01:31.287Z,39.60
2022-09-23T15:04:23.930Z,39.40
2022-09-23T15:07:09.364Z,39.30
2022-09-23T15:09:40.527Z,40.00
2022-09-23T15:12:21.421Z,41.70
2022-09-23T15:14:56.500Z,43.40
2022-09-23T15:17:23.115Z,43.10
2022-09-23T15:19:56.682Z,44.10
2022-09-23T15:22:25.239Z,42.50
2022-09-23T15:24:54.809Z,41.70
2022-09-23T15:27:32.159Z,43.70
2022-09-23T15:30:18.467Z,43.30
2022-09-23T15:32:46.594Z,43.40
2022-09-23T15:35:19.613Z,43.60
2022-09-23T15:37:49.298Z,43.80
2022-09-23T15:40:22.772Z,44.40
2022-09-23T15:42:56.034Z,45.80
2022-09-23T15:45:35.119Z,44.70
2022-09-23T15:48:13.164Z,43.30
2022-09-23T15:50:41.143Z,42.00
2022-09-23T15:53:14.695Z,41.80
2022-09-23T15:55:41.549Z,39.50
2022-09-23T15:58:08.355Z,40.40
2022-09-23T16:00:36.428Z,40.40
2022-09-23T16:03:06.493Z,41.30
2022-09-23T16:05:38.903Z,43.30
2022-09-23T16:08:09.579Z,45.60
2022-09-23T16:10:37.584Z,47.60
2022-09-23T16:13:10.057Z,49.40
2022-09-23T16:15:38.972Z,50.70
2022-09-23T16:18:08.018Z,50.60
2022-09-23T16:20:38.481Z,52.80
2022-09-23T16:23:13.994Z,54.10
2022-09-23T16:25:40.796Z,56.10
2022-09-23T16:28:07.642Z,58.00
2022-09-23T16:30:34.689Z,59.70
2022-09-23T16:33:01.944Z,61.60
2022-09-23T16:35:33.563Z,63.30
2022-09-23T16:38:04.798Z,65.00
2022-09-23T16:40:32.473Z,66.20
2022-09-23T16:43:02.039Z,66.90
2022-09-23T16:45:28.776Z,68.30
2022-09-23T16:47:56.376Z,70.10
2022-09-23T16:50:23.956Z,71.60
2022-09-23T16:52:57.076Z,72.70
2022-09-23T16:55:27.056Z,73.70
2022-09-23T16:57:54.808Z,74.80
2022-09-23T17:00:40.539Z,75.80
2022-09-23T17:03:28.491Z,76.90
2022-09-23T17:05:55.228Z,78.30
2022-09-23T17:08:22.120Z,80.40
2022-09-23T17:10:58.503Z,82.30
2022-09-23T17:13:28.131Z,84.60
2022-09-23T17:15:55.716Z,86.70
2022-09-23T17:18:22.604Z,88.70
2022-09-23T17:21:06.355Z,90.50
2022-09-23T17:23:36.451Z,91.80
2022-09-23T17:26:05.360Z,92.90
2022-09-23T17:28:32.237Z,93.80
2022-09-23T17:31:02.589Z,94.90
2022-09-23T17:33:32.250Z,95.80
2022-09-23T17:36:00.126Z,96.80
2022-09-23T17:38:29.473Z,97.60
2022-09-23T17:40:59.261Z,98.50
2022-09-23T17:43:26.755Z,99.00
2022-09-23T17:45:57.131Z,99.40
2022-09-23T17:48:25.169Z,99.90
2022-09-23T17:50:58.997Z,99.90
2022-09-23T17:53:26.136Z,99.90
2022-09-23T17:56:03.324Z,99.90
2022-09-23T17:58:36.238Z,99.90
2022-09-23T18:01:04.888Z,99.90
2022-09-23T18:03:32.046Z,99.90
2022-09-23T18:06:18.797Z,99.90
2022-09-23T18:08:48.548Z,99.90
2022-09-23T18:11:28.957Z,99.90
2022-09-23T18:14:02.423Z,99.90
2022-09-23T18:16:39.272Z,99.90
2022-09-23T18:19:08.002Z,99.90
2022-09-23T18:21:39.568Z,99.90
2022-09-23T18:24:30.719Z,99.90
2022-09-23T18:26:57.215Z,99.90
2022-09-23T18:29:23.897Z,99.90
2022-09-23T18:31:50.917Z,99.90
2022-09-23T18:34:18.456Z,99.90
2022-09-23T18:36:45.335Z,99.90
2022-09-23T18:39:12.328Z,99.90
2022-09-23T18:41:39.447Z,99.90
2022-09-23T18:44:06.385Z,99.90
2022-09-23T18:46:33.163Z,99.90
2022-09-23T18:49:19.140Z,99.90
2022-09-23T18:51:57.353Z,99.90
2022-09-23T18:54:27.504Z,99.90
2022-09-23T18:56:55.058Z,99.90
2022-09-23T18:59:27.950Z,99.90
2022-09-23T19:01:55.890Z,99.90
2022-09-23T19:04:25.749Z,99.90
2022-09-23T19:06:54.741Z,99.90
2022-09-23T19:09:21.646Z,99.90
2022-09-23T19:11:52.028Z,99.90
2022-09-23T19:14:19.276Z,99.90
2022-09-23T19:16:48.745Z,99.90
2022-09-23T19:19:15.506Z,99.90
2022-09-23T19:21:42.202Z,99.90
2022-09-23T19:24:14.384Z,99.90
2022-09-23T19:26:42.682Z,99.90
2022-09-23T19:29:19.461Z,99.90
2022-09-23T19:31:46.446Z,99.90
2022-09-23T19:34:16.393Z,99.90
2022-09-23T19:36:46.234Z,99.90
2022-09-23T19:39:21.029Z,99.90
2022-09-23T19:41:49.657Z,99.90
2022-09-23T19:44:16.951Z,99.90
2022-09-23T19:46:51.702Z,99.90
2022-09-23T19:49:21.787Z,99.90
2022-09-23T19:51:49.295Z,99.90
2022-09-23T19:54:20.324Z,99.90
2022-09-23T19:56:48.548Z,99.90
2022-09-23T19:59:18.863Z,99.90
2022-09-23T20:01:48.080Z,99.90
2022-09-23T20:04:16.320Z,99.90
2022-09-23T20:06:43.677Z,99.90
2022-09-23T20:09:10.399Z,99.90
2022-09-23T20:11:37.361Z,99.90
2022-09-23T20:14:05.970Z,99.90
2022-09-23T20:16:36.596Z,99.90
2022-09-23T20:19:05.426Z,99.90
2022-09-23T20:21:33.636Z,99.90
2022-09-23T20:24:01.439Z,99.90
2022-09-23T20:26:46.870Z,99.90
2022-09-23T20:29:13.600Z,99.90
2022-09-23T20:31:41.395Z,99.90
2022-09-23T20:34:10.377Z,99.90
2022-09-23T20:36:39.094Z,99.90
2022-09-23T20:39:06.771Z,99.90
2022-09-23T20:41:37.493Z,99.90
2022-09-23T20:44:07.936Z,99.90
2022-09-23T20:46:35.612Z,99.90
2022-09-23T20:49:03.558Z,99.90
2022-09-23T20:51:32.986Z,99.90
2022-09-23T20:53:59.829Z,99.90
2022-09-23T20:56:27.440Z,99.90
2022-09-23T20:58:54.281Z,99.90
2022-09-23T21:01:21.852Z,99.90
2022-09-23T21:03:52.184Z,99.90
2022-09-23T21:06:19.547Z,99.90
2022-09-23T21:08:46.573Z,99.90
2022-09-23T21:11:17.785Z,99.90
2022-09-23T21:13:50.319Z,99.90
2022-09-23T21:16:21.903Z,99.90
2022-09-23T21:18:50.400Z,99.90
2022-09-23T21:21:19.507Z,99.90
2022-09-23T21:23:47.397Z,99.90
2022-09-23T21:26:20.439Z,99.90
2022-09-23T21:28:53.594Z,99.90
2022-09-23T21:31:25.406Z,99.90
2022-09-23T21:34:01.579Z,99.90
2022-09-23T21:36:37.391Z,99.90
2022-09-23T21:39:09.112Z,99.90
2022-09-23T21:41:36.803Z,99.90
2022-09-23T21:44:04.903Z,99.90
2022-09-23T21:46:33.734Z,99.90
2022-09-23T21:49:03.246Z,99.90
2022-09-23T21:51:35.110Z,99.90
2022-09-23T21:54:01.909Z,99.90
2022-09-23T21:56:32.659Z,99.90
2022-09-23T21:58:59.868Z,99.90
2022-09-23T22:01:38.758Z,99.90
2022-09-23T22:04:16.879Z,99.90
2022-09-23T22:06:45.107Z,99.90
2022-09-23T22:09:19.166Z,99.90
2022-09-23T22:12:05.111Z,99.90
2022-09-23T22:14:32.630Z,99.90
2022-09-23T22:17:05.250Z,99.90
2022-09-23T22:19:36.601Z,99.90
2022-09-23T22:22:13.350Z,99.90
2022-09-23T22:24:47.924Z,99.90
2022-09-23T22:27:18.681Z,99.90
2022-09-23T22:30:04.020Z,99.90
2022-09-23T22:32:46.071Z,99.90
2022-09-23T22:35:17.538Z,99.90
2022-09-23T22:37:44.991Z,99.90
2022-09-23T22:40:14.713Z,99.90
2022-09-23T22:42:42.750Z,99.90
2022-09-23T22:45:11.632Z,99.90
2022-09-23T22:47:40.931Z,99.90
2022-09-23T22:50:09.209Z,99.90
2022-09-23T22:52:36.420Z,99.90
2022-09-23T22:55:04.888Z,99.90
2022-09-23T22:57:31.590Z,99.90
2022-09-23T22:59:58.293Z,99.90
2022-09-23T23:02:25.041Z,99.90
2022-09-23T23:04:51.834Z,99.90
2022-09-23T23:07:21.020Z,99.90
2022-09-23T23:09:52.214Z,99.90
2022-09-23T23:12:20.462Z,99.90
2022-09-23T23:14:48.995Z,99.90
2022-09-23T23:17:16.421Z,99.90
2022-09-23T23:19:43.101Z,99.90
2022-09-23T23:22:09.968Z,99.90
2022-09-23T23:24:36.731Z,99.90
2022-09-23T23:27:03.508Z,99.90
2022-09-23T23:29:30.201Z,99.90
2022-09-23T23:31:56.899Z,99.90
2022-09-23T23:34:23.603Z,99.90
2022-09-23T23:36:56.445Z,99.90
2022-09-23T23:39:25.101Z,99.90
2022-09-23T23:41:56.586Z,99.90
2022-09-23T23:44:25.342Z,99.90
2022-09-23T23:46:53.614Z,99.90
2022-09-23T23:49:21.409Z,99.90
2022-09-23T23:51:48.458Z,99.90
2022-09-23T23:54:15.632Z,99.90
2022-09-23T23:56:42.516Z,99.90
2022-09-23T23:59:09.350Z,99.90
